Time;durP1;ratioP1;P1;durP2;ratioP2;P2;SDS_P1;SDS_P2;PMS_P1;PMS_P2;Temp;Humidity;BMP_temperature;BMP_pressure;BME280_temperature;BME280_humidity;BME280_pressure;Samples;Min_cycle;Max_cycle;Signal;HPM_P1;HPM_P2
2023/08/28 00:02:09;;;;;;;;;1.00;1.00;;;;;16.49;67.90;101120.25;5101828;27;45430;-56
2023/08/28 00:04:34;;;;;;;;;1.67;1.67;;;;;16.52;68.20;101117.38;5101576;27;45580;-56
2023/08/28 00:06:59;;;;;;;;;2.00;2.00;;;;;16.55;67.78;101119.84;5100456;27;66742;-57
2023/08/28 00:09:25;;;;;;;;;4.00;2.00;;;;;16.58;68.13;101124.13;5101506;27;46056;-56
2023/08/28 00:11:50;;;;;;;;;1.67;1.00;;;;;16.60;68.08;101112.31;5101138;27;53373;-56
2023/08/28 00:14:15;;;;;;;;;4.00;2.00;;;;;16.64;67.88;101119.19;5101442;27;67144;-56
2023/08/28 00:16:40;;;;;;;;;1.33;1.33;;;;;16.66;68.04;101111.00;5098840;27;47619;-55
2023/08/28 00:19:06;;;;;;;;;2.00;1.00;;;;;16.66;67.83;101114.56;5100811;27;73638;-56
2023/08/28 00:21:31;;;;;;;;;2.33;2.00;;;;;16.67;68.01;101118.09;5100300;27;63694;-57
2023/08/28 00:23:57;;;;;;;;;3.00;2.00;;;;;16.66;67.99;101111.88;5101843;27;45421;-57
2023/08/28 00:26:22;;;;;;;;;2.00;2.00;;;;;16.65;67.99;101110.16;5099786;27;67616;-55
2023/08/28 00:28:47;;;;;;;;;1.00;1.00;;;;;16.63;67.88;101104.03;5101668;27;47065;-56
2023/08/28 00:31:13;;;;;;;;;2.67;1.00;;;;;16.63;67.63;101113.94;5100837;27;51757;-54
2023/08/28 00:33:38;;;;;;;;;3.33;2.67;;;;;16.61;67.89;101114.03;5093499;27;66970;-56
2023/08/28 00:36:03;;;;;;;;;1.00;1.00;;;;;16.62;68.05;101110.41;5100363;27;70982;-55
2023/08/28 00:38:29;;;;;;;;;3.00;2.00;;;;;16.60;67.93;101098.88;5101022;27;46250;-57
2023/08/28 00:40:54;;;;;;;;;2.00;2.00;;;;;16.59;67.78;101105.22;5100544;27;63704;-58
2023/08/28 00:43:19;;;;;;;;;1.00;1.00;;;;;16.57;67.65;101093.75;5100084;27;67887;-56
2023/08/28 00:45:45;;;;;;;;;0.67;0.67;;;;;16.54;67.84;101102.00;5101069;27;45392;-56
2023/08/28 00:48:12;;;;;;;;;3.33;1.67;;;;;16.52;68.15;101091.38;5100683;27;46074;-56
2023/08/28 00:50:38;;;;;;;;;1.00;1.00;;;;;16.52;68.06;101090.53;5080304;27;45625;-57
2023/08/28 00:53:04;;;;;;;;;0.33;0.33;;;;;16.52;68.47;101087.84;5082577;27;60719;-56
2023/08/28 00:55:31;;;;;;;;;1.00;1.00;;;;;16.52;68.15;101087.84;5080915;27;67587;-56
2023/08/28 00:57:56;;;;;;;;;2.67;2.00;;;;;16.52;67.88;101088.69;5099428;27;72615;-56
2023/08/28 01:00:21;;;;;;;;;4.67;2.00;;;;;16.52;68.01;101086.00;5098308;27;49083;-57
2023/08/28 01:02:47;;;;;;;;;1.00;1.00;;;;;16.52;68.18;101083.31;5082366;27;45852;-56
2023/08/28 01:05:13;;;;;;;;;2.00;1.00;;;;;16.52;68.11;101082.47;5081748;27;45485;-56
2023/08/28 01:07:48;;;;;;;;;1.00;1.00;;;;;16.52;68.20;101074.41;5099108;27;70841;-56
2023/08/28 01:10:27;;;;;;;;;1.00;1.00;;;;;16.50;67.83;101077.22;5100902;27;45646;-56
2023/08/28 01:13:00;;;;;;;;;3.00;1.00;;;;;16.50;67.92;101079.03;5100027;27;45597;-57
2023/08/28 01:15:27;;;;;;;;;3.67;2.00;;;;;16.51;68.59;101078.06;5100198;27;45413;-56
2023/08/28 01:18:04;;;;;;;;;3.00;1.33;;;;;16.51;68.63;101086.97;5100289;27;46504;-57
2023/08/28 01:20:30;;;;;;;;;0.33;0.33;;;;;16.50;68.33;101081.72;5081516;27;45386;-56
2023/08/28 01:23:12;;;;;;;;;1.67;1.67;;;;;16.52;67.59;101079.78;5082809;27;45393;-56
2023/08/28 01:25:38;;;;;;;;;0.67;0.67;;;;;16.51;68.18;101078.91;5064834;27;45278;-56
2023/08/28 01:28:04;;;;;;;;;1.67;1.67;;;;;16.51;68.68;101078.06;5100516;27;45506;-54
2023/08/28 01:30:29;;;;;;;;;1.00;1.00;;;;;16.50;67.98;101079.03;5081302;27;45390;-56
2023/08/28 01:32:55;;;;;;;;;2.00;2.00;;;;;16.47;67.75;101073.88;5079533;27;56670;-56
2023/08/28 01:35:23;;;;;;;;;2.00;0.67;;;;;16.45;68.43;101079.38;5078227;27;67820;-57
2023/08/28 01:38:13;;;;;;;;;1.00;0.00;;;;;16.46;68.07;101081.06;5082411;27;47361;-56
2023/08/28 01:40:57;;;;;;;;;1.67;1.00;;;;;16.45;68.24;101073.13;5099907;27;45517;-56
2023/08/28 01:43:24;;;;;;;;;1.00;1.00;;;;;16.45;68.57;101065.06;5100283;27;45404;-57
2023/08/28 01:45:50;;;;;;;;;3.33;1.00;;;;;16.43;68.42;101059.81;5099478;27;45548;-56
2023/08/28 01:48:16;;;;;;;;;3.00;1.00;;;;;16.42;68.20;101063.44;5081973;27;46340;-55
2023/08/28 01:50:41;;;;;;;;;1.00;1.00;;;;;16.43;68.83;101072.38;5099238;27;45333;-57
2023/08/28 01:53:06;;;;;;;;;1.00;1.00;;;;;16.42;68.32;101060.78;5099643;27;68033;-57
2023/08/28 01:55:53;;;;;;;;;1.00;1.00;;;;;16.40;68.38;101060.03;5098756;27;68569;-56
2023/08/28 01:58:19;;;;;;;;;2.33;1.00;;;;;16.40;69.13;101054.66;5100030;27;45759;-56
2023/08/28 02:00:44;;;;;;;;;1.00;1.00;;;;;16.43;68.84;101050.91;5095583;27;45557;-56
2023/08/28 02:03:10;;;;;;;;;1.00;1.00;;;;;16.44;69.06;101050.78;5099309;27;67702;-56
2023/08/28 02:05:36;;;;;;;;;0.67;0.67;;;;;16.46;68.59;101046.16;5098977;27;45509;-56
2023/08/28 02:08:01;;;;;;;;;2.00;1.00;;;;;16.48;68.92;101051.44;5099652;27;46048;-56
2023/08/28 02:10:27;;;;;;;;;2.67;1.00;;;;;16.48;68.60;101052.28;5097615;27;45449;-56
2023/08/28 02:12:52;;;;;;;;;3.33;2.00;;;;;16.50;68.79;101054.84;5078770;27;53811;-56
2023/08/28 02:15:17;;;;;;;;;1.00;1.00;;;;;16.51;69.25;101054.75;5098351;27;69057;-57
2023/08/28 02:17:43;;;;;;;;;2.33;1.00;;;;;16.55;69.08;101058.06;5098053;27;71029;-56
2023/08/28 02:20:11;;;;;;;;;2.67;1.00;;;;;16.57;68.55;101050.78;5098925;27;53333;-57
2023/08/28 02:22:36;;;;;;;;;2.00;2.00;;;;;16.58;68.86;101040.88;5097432;27;45876;-57
2023/08/28 02:25:05;;;;;;;;;2.00;0.67;;;;;16.59;69.03;101046.16;5098906;27;60391;-55
2023/08/28 02:27:30;;;;;;;;;1.00;1.00;;;;;16.61;69.14;101041.53;5099575;27;46519;-56
2023/08/28 02:29:56;;;;;;;;;0.33;0.33;;;;;16.62;68.39;101043.25;5097653;27;45439;-56
2023/08/28 02:32:21;;;;;;;;;1.00;1.00;;;;;16.61;69.26;101038.84;5098813;27;56166;-57
2023/08/28 02:34:46;;;;;;;;;1.00;1.00;;;;;16.63;69.17;101044.09;5094170;27;63067;-57
2023/08/28 02:37:11;;;;;;;;;2.00;1.00;;;;;16.62;68.62;101042.38;5097983;27;74629;-57
2023/08/28 02:39:38;;;;;;;;;0.33;0.00;;;;;16.60;69.44;101045.19;5097411;27;71856;-57
2023/08/28 02:42:03;;;;;;;;;2.00;0.67;;;;;16.60;69.59;101049.72;5099938;27;45371;-56
2023/08/28 02:44:29;;;;;;;;;3.00;1.00;;;;;16.59;69.61;101048.81;5097111;27;45683;-56
2023/08/28 02:46:54;;;;;;;;;1.00;1.00;;;;;16.58;69.48;101052.47;5098347;27;72124;-56
2023/08/28 02:49:19;;;;;;;;;1.00;1.00;;;;;16.58;69.53;101055.16;5080434;27;45705;-56
2023/08/28 02:51:44;;;;;;;;;2.00;1.00;;;;;16.59;68.82;101047.97;5098033;27;64529;-57
2023/08/28 02:54:10;;;;;;;;;0.67;0.67;;;;;16.58;68.98;101057.00;5080482;27;69265;-56
2023/08/28 02:56:38;;;;;;;;;2.00;1.00;;;;;16.55;69.69;101063.44;5097770;27;72894;-56
2023/08/28 02:59:03;;;;;;;;;0.67;0.67;;;;;16.53;69.57;101058.19;5099493;27;45443;-57
2023/08/28 03:01:34;;;;;;;;;1.00;1.00;;;;;16.53;69.31;101060.88;5098303;27;45436;-57
2023/08/28 03:04:00;;;;;;;;;1.00;1.00;;;;;16.53;69.70;101065.38;5099056;27;45485;-56
2023/08/28 03:06:25;;;;;;;;;0.67;0.67;;;;;16.52;69.67;101069.03;5098207;27;45716;-57
2023/08/28 03:08:51;;;;;;;;;1.00;1.00;;;;;16.51;70.10;101067.31;5082550;27;45739;-56
2023/08/28 03:11:16;;;;;;;;;1.33;0.00;;;;;16.50;69.81;101066.47;5097984;27;64271;-57
2023/08/28 03:13:42;;;;;;;;;1.67;1.00;;;;;16.50;69.83;101062.91;5098902;27;45386;-56
2023/08/28 03:16:08;;;;;;;;;4.67;2.33;;;;;16.49;69.96;101070.13;5097693;27;68042;-57
2023/08/28 03:18:33;;;;;;;;;1.00;1.00;;;;;16.49;70.14;101071.94;5094508;27;45294;-57
2023/08/28 03:20:59;;;;;;;;;1.00;1.00;;;;;16.48;69.86;101071.09;5091373;27;45730;-57
2023/08/28 03:23:24;;;;;;;;;1.67;1.67;;;;;16.47;69.71;101065.81;5093379;27;47751;-56
2023/08/28 03:25:50;;;;;;;;;1.00;1.00;;;;;16.45;69.71;101067.75;5087970;27;45377;-57
2023/08/28 03:28:16;;;;;;;;;1.00;0.00;;;;;16.44;70.24;101072.28;5088131;27;45741;-57
2023/08/28 03:30:41;;;;;;;;;1.00;1.00;;;;;16.43;70.40;101069.69;5085094;27;65173;-57
2023/08/28 03:33:07;;;;;;;;;1.00;1.00;;;;;16.37;70.74;101076.34;5080708;27;45671;-56
2023/08/28 03:35:33;;;;;;;;;1.67;1.00;;;;;16.31;70.28;101076.75;5090220;27;45949;-56
2023/08/28 03:37:59;;;;;;;;;1.00;1.00;;;;;16.29;70.58;101073.34;5084569;27;45354;-57
2023/08/28 03:40:24;;;;;;;;;1.00;1.00;;;;;16.29;70.91;101081.41;5087453;27;64552;-57
2023/08/28 03:42:49;;;;;;;;;1.00;1.00;;;;;16.28;71.05;101079.66;5083948;27;45649;-55
2023/08/28 03:45:15;;;;;;;;;1.67;1.00;;;;;16.28;71.39;101074.31;5083301;27;70829;-57
2023/08/28 03:47:40;;;;;;;;;2.00;0.67;;;;;16.27;71.11;101086.00;5093114;27;45300;-57
2023/08/28 03:50:05;;;;;;;;;2.00;2.00;;;;;16.23;71.29;101090.75;5093974;27;46779;-56
2023/08/28 03:52:31;;;;;;;;;1.00;1.00;;;;;16.21;70.73;101082.78;5095849;27;45526;-56
2023/08/28 03:54:56;;;;;;;;;1.33;1.33;;;;;16.20;70.75;101090.94;5070905;28;47197;-56
2023/08/28 03:57:23;;;;;;;;;4.00;1.00;;;;;16.16;71.67;101092.13;5077554;27;68039;-56
2023/08/28 03:59:48;;;;;;;;;2.00;2.00;;;;;16.13;71.34;101087.81;5090668;27;45287;-57
2023/08/28 04:02:14;;;;;;;;;1.33;1.33;;;;;16.13;71.06;101089.66;5091476;27;65812;-56
2023/08/28 04:04:39;;;;;;;;;0.67;0.67;;;;;16.11;71.75;101089.75;5071038;27;46010;-56
2023/08/28 04:07:04;;;;;;;;;1.00;1.00;;;;;16.12;72.05;101096.81;5074619;27;58199;-56
2023/08/28 04:09:30;;;;;;;;;2.00;1.00;;;;;16.14;71.52;101094.91;5091782;27;62037;-61
2023/08/28 04:11:56;;;;;;;;;0.00;0.00;;;;;16.16;71.89;101106.38;5067423;27;71484;-56
2023/08/28 04:14:22;;;;;;;;;2.00;1.67;;;;;16.13;72.39;101098.56;5080859;27;46897;-57
2023/08/28 04:16:47;;;;;;;;;1.00;1.00;;;;;16.13;71.93;101101.25;5088637;27;45404;-57
2023/08/28 04:19:12;;;;;;;;;1.00;1.00;;;;;16.16;72.19;101103.69;5093012;27;45647;-56
2023/08/28 04:21:38;;;;;;;;;2.33;1.00;;;;;16.20;72.19;101105.22;5086415;27;61597;-57
2023/08/28 04:24:03;;;;;;;;;2.33;1.00;;;;;16.21;72.08;101098.03;5070025;27;45616;-56
2023/08/28 04:26:30;;;;;;;;;1.00;0.67;;;;;16.16;72.64;101101.00;5087552;27;45402;-56
2023/08/28 04:28:55;;;;;;;;;1.33;1.33;;;;;16.15;72.36;101104.69;5098412;27;45850;-56
2023/08/28 04:31:21;;;;;;;;;1.00;1.00;;;;;16.15;72.54;101099.31;5066925;27;45323;-56
2023/08/28 04:33:46;;;;;;;;;1.00;1.00;;;;;16.18;72.40;101099.09;5092661;27;46168;-56
2023/08/28 04:36:11;;;;;;;;;2.33;1.00;;;;;16.19;72.35;101100.81;5086135;27;45494;-56
2023/08/28 04:38:37;;;;;;;;;5.00;2.33;;;;;16.19;72.35;101099.94;5099911;27;45432;-56
2023/08/28 04:41:03;;;;;;;;;1.00;1.00;;;;;16.22;72.59;101097.06;5090968;27;45546;-57
2023/08/28 04:43:28;;;;;;;;;1.00;1.00;;;;;16.28;72.65;101091.28;5091304;27;71874;-56
2023/08/28 04:45:53;;;;;;;;;1.00;1.00;;;;;16.31;72.22;101090.19;5086161;27;45390;-56
2023/08/28 04:48:19;;;;;;;;;3.33;1.00;;;;;16.33;72.32;101083.75;5087398;27;45544;-57
2023/08/28 04:50:44;;;;;;;;;3.33;1.33;;;;;16.36;72.33;101083.53;5098407;27;45414;-57
2023/08/28 04:53:09;;;;;;;;;2.00;2.00;;;;;16.38;71.90;101078.91;5088814;27;58464;-56
2023/08/28 04:55:37;;;;;;;;;1.00;1.00;;;;;16.40;72.20;101080.63;5094273;27;72004;-57
2023/08/28 04:58:03;;;;;;;;;1.00;1.00;;;;;16.40;72.20;101076.16;5078437;27;45422;-58
2023/08/28 05:00:28;;;;;;;;;1.00;1.00;;;;;16.42;71.79;101068.81;5091545;27;45654;-57
2023/08/28 05:02:53;;;;;;;;;0.67;0.67;;;;;16.43;71.56;101067.84;5090637;27;67077;-57
2023/08/28 05:05:19;;;;;;;;;2.33;1.00;;;;;16.43;71.81;101075.06;5086531;27;45623;-57
2023/08/28 05:07:44;;;;;;;;;3.00;2.00;;;;;16.44;71.94;101071.38;5090642;27;65571;-57
2023/08/28 05:10:09;;;;;;;;;1.00;1.00;;;;;16.45;71.73;101067.75;5096151;27;51651;-57
2023/08/28 05:12:35;;;;;;;;;1.00;0.00;;;;;16.45;71.97;101070.44;5091751;27;45892;-57
2023/08/28 05:15:00;;;;;;;;;3.00;1.00;;;;;16.45;72.06;101073.13;5083980;27;68874;-57
2023/08/28 05:17:25;;;;;;;;;1.00;1.00;;;;;16.46;71.96;101072.16;5086421;27;45272;-57
2023/08/28 05:19:51;;;;;;;;;3.33;1.00;;;;;16.47;72.08;101063.16;5087446;27;60766;-57
2023/08/28 05:22:16;;;;;;;;;1.00;1.00;;;;;16.49;72.12;101071.94;5093795;27;60284;-57
2023/08/28 05:24:41;;;;;;;;;2.00;2.00;;;;;16.49;72.37;101074.63;5095891;27;70130;-56
2023/08/28 05:27:08;;;;;;;;;2.67;1.00;;;;;16.51;72.31;101072.69;5093868;27;45458;-57
2023/08/28 05:29:33;;;;;;;;;2.00;1.00;;;;;16.53;72.14;101077.00;5092606;27;45346;-57
2023/08/28 05:31:59;;;;;;;;;4.00;1.67;;;;;16.53;71.78;101078.78;5088246;27;54484;-57
2023/08/28 05:34:24;;;;;;;;;0.00;0.00;;;;;16.53;71.73;101084.16;5085713;27;45409;-57
2023/08/28 05:36:49;;;;;;;;;1.00;1.00;;;;;16.50;72.21;101082.59;5089316;27;60773;-57
2023/08/28 05:39:14;;;;;;;;;1.00;1.00;;;;;16.50;71.93;101079.91;5095537;27;45410;-57
2023/08/28 05:41:40;;;;;;;;;2.00;2.00;;;;;16.48;71.61;101083.66;5086992;27;73883;-57
2023/08/28 05:44:05;;;;;;;;;1.00;1.00;;;;;16.49;72.38;101083.53;5093242;27;71145;-57
2023/08/28 05:46:30;;;;;;;;;1.00;1.00;;;;;16.52;71.68;101085.16;5087373;27;45419;-57
2023/08/28 05:48:56;;;;;;;;;1.00;1.00;;;;;16.53;71.92;101070.75;5095555;27;66305;-56
2023/08/28 05:51:22;;;;;;;;;1.00;1.00;;;;;16.54;72.20;101070.66;5084198;27;45916;-56
2023/08/28 05:53:47;;;;;;;;;2.67;2.00;;;;;16.58;72.16;101070.44;5091166;27;45537;-57
2023/08/28 05:56:12;;;;;;;;;3.00;0.33;;;;;16.62;71.91;101080.84;5086021;27;66284;-56
2023/08/28 05:58:38;;;;;;;;;2.33;1.33;;;;;16.65;72.15;101077.09;5092829;27;67907;-56
2023/08/28 06:01:03;;;;;;;;;1.67;1.67;;;;;16.68;71.65;101061.59;5084193;27;71412;-57
2023/08/28 06:03:28;;;;;;;;;4.00;2.00;;;;;16.74;71.63;101064.81;5096157;27;47228;-56
2023/08/28 06:05:55;;;;;;;;;2.00;2.00;;;;;16.78;71.63;101063.63;5066759;27;45694;-57
2023/08/28 06:08:20;;;;;;;;;1.00;1.00;;;;;16.84;71.82;101064.06;5085809;27;45790;-55
2023/08/28 06:10:46;;;;;;;;;2.00;2.00;;;;;16.89;71.70;101060.16;5085034;27;46749;-56
2023/08/28 06:13:12;;;;;;;;;1.00;1.00;;;;;16.95;70.82;101057.09;5073019;27;45574;-56
2023/08/28 06:15:37;;;;;;;;;1.00;1.00;;;;;17.00;71.15;101049.50;5069141;27;45529;-56
2023/08/28 06:18:04;;;;;;;;;2.67;0.00;;;;;17.11;70.91;101057.66;5090526;27;45607;-57
2023/08/28 06:20:30;;;;;;;;;1.33;1.33;;;;;17.24;70.87;101049.53;5088811;27;46082;-57
2023/08/28 06:22:56;;;;;;;;;1.67;1.00;;;;;17.40;70.70;101056.47;5079187;27;45727;-58
2023/08/28 06:25:21;;;;;;;;;2.00;2.00;;;;;17.55;70.64;101055.31;5092095;27;45440;-57
2023/08/28 06:27:46;;;;;;;;;2.00;2.00;;;;;17.66;69.96;101058.06;5081281;27;45579;-58
2023/08/28 06:30:12;;;;;;;;;1.00;1.00;;;;;17.76;69.65;101062.75;5081716;27;47190;-57
2023/08/28 06:32:38;;;;;;;;;4.67;2.33;;;;;17.86;69.16;101061.06;5088913;27;46649;-58
2023/08/28 06:35:04;;;;;;;;;3.00;1.00;;;;;18.07;69.57;101063.06;5091427;27;46036;-57
2023/08/28 06:37:29;;;;;;;;;3.00;1.00;;;;;19.29;69.02;101062.31;5078675;27;48083;-57
2023/08/28 06:39:55;;;;;;;;;1.33;1.33;;;;;19.71;65.94;101055.31;5046951;27;56767;-57
2023/08/28 06:42:20;;;;;;;;;2.00;2.00;;;;;19.76;65.14;101061.16;5068884;27;45689;-57
2023/08/28 06:44:46;;;;;;;;;4.00;2.00;;;;;19.69;64.54;101055.44;5085401;27;45451;-57
2023/08/28 06:47:12;;;;;;;;;2.00;2.00;;;;;19.56;64.71;101058.31;5090415;27;45374;-55
2023/08/28 06:49:38;;;;;;;;;2.00;2.00;;;;;19.43;64.34;101063.03;5081404;27;47634;-56
2023/08/28 06:52:04;;;;;;;;;0.00;0.00;;;;;19.29;64.67;101061.47;5036724;27;45907;-56
2023/08/28 06:54:29;;;;;;;;;3.33;1.67;;;;;19.16;64.92;101057.13;5090944;27;45497;-56
2023/08/28 06:56:55;;;;;;;;;5.00;1.00;;;;;19.06;64.90;101056.16;5094927;27;45363;-56
2023/08/28 06:59:20;;;;;;;;;1.00;1.00;;;;;18.97;64.83;101046.97;5092999;27;45916;-56
2023/08/28 07:01:45;;;;;;;;;2.00;2.00;;;;;18.94;65.18;101049.94;5079057;27;45451;-56
2023/08/28 07:04:11;;;;;;;;;3.33;2.00;;;;;18.92;65.55;101057.28;5089334;27;45590;-57
2023/08/28 07:06:36;;;;;;;;;2.00;2.00;;;;;18.98;65.54;101054.09;5082667;27;70154;-57
2023/08/28 07:09:01;;;;;;;;;1.67;1.67;;;;;19.08;66.00;101053.31;5080878;27;73645;-57
2023/08/28 07:11:27;;;;;;;;;2.00;2.00;;;;;19.20;65.25;101056.84;5087416;27;65953;-57
2023/08/28 07:13:53;;;;;;;;;2.00;2.00;;;;;19.30;65.07;101052.41;5083967;27;52046;-57
2023/08/28 07:16:18;;;;;;;;;3.00;2.00;;;;;19.36;64.81;101051.03;5088987;27;45437;-57
2023/08/28 07:18:44;;;;;;;;;1.67;1.67;;;;;19.41;64.84;101046.97;5083295;27;70266;-57
2023/08/28 07:21:09;;;;;;;;;2.00;2.00;;;;;19.41;64.28;101048.81;5085601;27;45531;-56
2023/08/28 07:23:36;;;;;;;;;5.00;2.00;;;;;19.32;64.48;101040.50;5083427;27;45690;-57
2023/08/28 07:26:02;;;;;;;;;1.67;1.67;;;;;19.26;64.47;101045.56;5078944;27;46464;-58
2023/08/28 07:28:28;;;;;;;;;2.67;2.00;;;;;19.18;64.85;101052.44;5082174;27;46194;-59
2023/08/28 07:31:02;;;;;;;;;3.00;3.00;;;;;19.13;64.85;101045.72;5078067;27;45508;-59
2023/08/28 07:33:27;;;;;;;;;2.67;2.67;;;;;19.14;64.91;101040.19;5086047;27;45888;-58
2023/08/28 07:35:52;;;;;;;;;4.67;3.00;;;;;19.16;64.90;101043.63;5088039;27;68372;-58
2023/08/28 07:38:18;;;;;;;;;3.00;3.00;;;;;19.22;65.07;101042.25;5088393;27;46857;-58
2023/08/28 07:40:46;;;;;;;;;2.00;2.00;;;;;19.44;65.00;101043.19;5094529;27;51996;-59
2023/08/28 07:43:12;;;;;;;;;3.00;3.00;;;;;19.74;64.46;101042.41;5087411;27;45545;-58
2023/08/28 07:45:37;;;;;;;;;3.67;3.67;;;;;19.83;64.55;101041.66;5087098;27;45620;-58
2023/08/28 07:48:03;;;;;;;;;3.67;3.67;;;;;19.84;63.71;101039.81;5090119;27;45865;-58
2023/08/28 07:50:30;;;;;;;;;2.00;2.00;;;;;19.71;63.56;101039.13;5082150;27;45541;-58
2023/08/28 07:52:55;;;;;;;;;2.50;2.50;;;;;19.58;63.90;101042.00;5088076;27;45897;-58
2023/08/28 07:55:21;;;;;;;;;2.00;2.00;;;;;19.54;64.02;101041.38;5085368;27;45526;-58
2023/08/28 07:57:46;;;;;;;;;3.00;3.00;;;;;19.49;64.08;101049.88;5067091;27;73484;-58
2023/08/28 08:00:13;;;;;;;;;2.00;2.00;;;;;19.50;64.06;101046.22;5081940;27;45433;-58
2023/08/28 08:02:40;;;;;;;;;2.67;1.00;;;;;19.46;64.35;101043.88;5091228;27;45387;-59
2023/08/28 08:05:06;;;;;;;;;2.00;2.00;;;;;19.46;64.24;101046.56;5079269;27;45755;-59
2023/08/28 08:07:34;;;;;;;;;2.00;2.00;;;;;19.47;64.21;101053.69;5080266;27;46130;-59
2023/08/28 08:10:00;;;;;;;;;3.33;3.00;;;;;19.54;64.17;101054.88;5095793;27;45654;-58
2023/08/28 08:12:26;;;;;;;;;2.33;2.33;;;;;19.63;64.17;101054.13;5093206;27;54746;-58
2023/08/28 08:14:52;;;;;;;;;3.00;2.00;;;;;19.72;64.41;101054.31;5088726;27;45652;-58
2023/08/28 08:17:17;;;;;;;;;3.00;2.00;;;;;19.79;63.64;101059.06;5093927;27;45394;-58
2023/08/28 08:19:43;;;;;;;;;3.67;3.00;;;;;19.92;63.70;101058.03;5096350;27;70084;-58
2023/08/28 08:22:08;;;;;;;;;3.00;3.00;;;;;20.10;63.43;101061.88;5092755;27;45328;-58
2023/08/28 08:24:33;;;;;;;;;1.67;1.67;;;;;20.29;63.48;101055.72;5092248;27;45566;-58
2023/08/28 08:26:59;;;;;;;;;1.33;1.33;;;;;20.41;62.35;101066.44;5096164;27;46154;-58
2023/08/28 08:29:24;;;;;;;;;1.00;1.00;;;;;20.48;62.64;101064.91;5070983;27;45762;-58
2023/08/28 08:31:51;;;;;;;;;3.00;2.00;;;;;20.55;61.85;101057.97;5091897;27;45430;-58
2023/08/28 08:34:18;;;;;;;;;4.00;1.67;;;;;20.69;62.37;101059.47;5096383;27;45532;-58
2023/08/28 08:36:43;;;;;;;;;3.33;2.00;;;;;20.87;61.58;101058.81;5096454;27;46362;-58
2023/08/28 08:39:08;;;;;;;;;2.00;1.67;;;;;21.01;61.65;101066.56;5098431;27;45538;-58
2023/08/28 08:41:34;;;;;;;;;3.00;2.00;;;;;21.21;61.09;101070.16;5079208;27;46456;-58
2023/08/28 08:43:59;;;;;;;;;3.33;2.00;;;;;21.46;60.25;101065.22;5096025;27;56927;-58
2023/08/28 08:46:25;;;;;;;;;2.00;2.00;;;;;21.85;59.64;101062.53;5095210;27;65151;-57
2023/08/28 08:48:54;;;;;;;;;4.00;3.00;;;;;22.10;58.90;101071.88;5096078;27;45443;-58
2023/08/28 08:51:21;;;;;;;;;2.00;2.00;;;;;22.33;58.36;101063.41;5098846;27;45850;-58
2023/08/28 08:53:59;;;;;;;;;2.67;2.67;;;;;22.62;57.75;101066.06;5074508;27;45394;-58
2023/08/28 08:56:27;;;;;;;;;3.67;3.00;;;;;22.64;55.88;101068.59;5094296;27;46078;-57
2023/08/28 08:58:53;;;;;;;;;2.00;2.00;;;;;22.40;56.42;101069.16;5091171;27;45481;-58
2023/08/28 09:01:19;;;;;;;;;2.00;2.00;;;;;22.19;57.19;101080.13;5092502;27;45408;-58
2023/08/28 09:03:45;;;;;;;;;3.67;2.33;;;;;22.03;57.33;101073.47;5086616;27;45804;-57
2023/08/28 09:06:11;;;;;;;;;2.00;2.00;;;;;22.02;57.48;101077.19;5070979;27;66710;-58
2023/08/28 09:08:42;;;;;;;;;2.00;2.00;;;;;22.75;57.18;101071.13;5071575;27;45471;-58
2023/08/28 09:11:08;;;;;;;;;2.00;2.00;;;;;25.07;55.19;101060.25;5074094;27;45422;-58
2023/08/28 09:13:34;;;;;;;;;2.00;2.00;;;;;26.39;51.20;101055.72;5088958;27;45621;-58
2023/08/28 09:16:00;;;;;;;;;2.67;2.67;;;;;27.21;49.42;101059.16;5087714;27;46222;-58
2023/08/28 09:18:25;;;;;;;;;3.00;3.00;;;;;27.12;47.26;101063.81;5090736;27;45540;-58
2023/08/28 09:21:10;;;;;;;;;2.00;2.00;;;;;26.81;46.98;101052.91;5085306;27;45319;-58
2023/08/28 09:23:46;;;;;;;;;2.25;2.25;;;;;26.90;47.21;101060.00;5085906;27;45463;-58
2023/08/28 09:26:13;;;;;;;;;2.00;2.00;;;;;26.66;46.72;101056.34;5093292;27;46575;-58
2023/08/28 09:28:38;;;;;;;;;2.00;2.00;;;;;26.38;46.37;101066.81;5089561;27;45497;-58
2023/08/28 09:31:04;;;;;;;;;2.00;2.00;;;;;26.05;46.54;101064.16;5092778;27;45329;-58
2023/08/28 09:33:46;;;;;;;;;4.50;2.75;;;;;25.83;48.67;101055.63;5089069;27;45675;-58
2023/08/28 09:36:16;;;;;;;;;1.00;1.00;;;;;25.32;47.54;101066.63;5073668;27;45903;-58
2023/08/28 09:38:42;;;;;;;;;2.50;2.00;;;;;24.75;47.56;101070.88;5088633;27;45346;-58
2023/08/28 09:41:08;;;;;;;;;2.75;2.75;;;;;24.14;49.02;101064.56;5095678;27;45647;-58
2023/08/28 09:43:35;;;;;;;;;4.75;3.50;;;;;23.52;49.80;101072.66;5095258;27;45656;-58
2023/08/28 09:46:01;;;;;;;;;3.00;3.00;;;;;22.93;51.64;101073.91;5073947;27;46038;-58
2023/08/28 09:48:29;;;;;;;;;5.00;3.25;;;;;22.42;52.57;101076.13;5073222;27;45554;-58
2023/08/28 09:50:54;;;;;;;;;4.00;3.00;;;;;22.05;53.98;101081.44;5099633;27;45502;-58
2023/08/28 09:53:19;;;;;;;;;4.75;3.25;;;;;21.76;54.86;101080.47;5092856;27;63854;-58
2023/08/28 09:55:48;;;;;;;;;3.50;3.50;;;;;21.54;55.10;101078.91;5093391;27;75687;-58
2023/08/28 09:58:14;;;;;;;;;3.50;3.25;;;;;21.39;55.78;101075.72;5094236;27;45356;-58
2023/08/28 10:00:40;;;;;;;;;5.00;5.00;;;;;21.32;56.32;101077.28;5094241;27;45445;-58
2023/08/28 10:03:12;;;;;;;;;4.00;2.67;;;;;21.38;56.02;101075.88;5095454;27;45886;-58
2023/08/28 10:05:40;;;;;;;;;5.00;3.00;;;;;21.48;55.78;101074.03;5089250;27;46557;-58
2023/08/28 10:08:07;;;;;;;;;2.00;2.00;;;;;21.73;56.21;101078.06;5085510;27;45584;-58
2023/08/28 10:10:34;;;;;;;;;5.25;4.25;;;;;22.18;56.01;101076.56;5091654;27;45515;-58
2023/08/28 10:13:03;;;;;;;;;3.33;3.33;;;;;22.83;55.01;101073.09;5099272;27;45392;-58
2023/08/28 10:15:30;;;;;;;;;5.00;3.67;;;;;23.32;54.11;101063.84;5073856;27;46080;-58
2023/08/28 10:18:03;;;;;;;;;5.00;3.33;;;;;23.72;53.04;101071.50;5077280;27;45413;-58
2023/08/28 10:20:30;;;;;;;;;5.75;2.75;;;;;24.10;52.55;101074.88;5067935;27;45741;-58
2023/08/28 10:22:56;;;;;;;;;4.00;2.33;;;;;24.50;51.97;101080.75;5064828;27;45435;-57
2023/08/28 10:25:24;;;;;;;;;3.00;3.00;;;;;25.22;50.92;101072.22;5071920;27;45971;-57
2023/08/28 10:27:49;;;;;;;;;6.25;3.25;;;;;25.98;49.78;101072.13;5086782;27;45482;-57
2023/08/28 10:30:15;;;;;;;;;3.00;3.00;;;;;26.12;48.07;101073.34;5087227;27;45500;-58
2023/08/28 10:32:41;;;;;;;;;3.25;3.00;;;;;26.20;47.78;101067.88;5071898;27;45605;-57
2023/08/28 10:35:09;;;;;;;;;3.25;3.25;;;;;26.41;47.48;101066.47;5070335;27;47794;-57
2023/08/28 10:37:37;;;;;;;;;2.25;2.25;;;;;26.38;46.41;101069.53;5074134;27;45419;-57
2023/08/28 10:40:03;;;;;;;;;3.00;3.00;;;;;26.16;47.10;101073.84;5093408;27;45473;-57
2023/08/28 10:42:30;;;;;;;;;3.00;3.00;;;;;25.90;47.56;101081.19;5070685;27;46262;-58
2023/08/28 10:44:55;;;;;;;;;4.00;3.00;;;;;25.48;47.38;101073.16;5066337;27;46388;-58
2023/08/28 10:47:21;;;;;;;;;3.00;2.00;;;;;25.29;46.86;101071.56;5070901;27;45609;-57
2023/08/28 10:49:46;;;;;;;;;1.75;1.75;;;;;25.23;48.61;101071.19;5080619;27;52237;-57
2023/08/28 10:52:12;;;;;;;;;2.25;2.25;;;;;25.23;47.69;101068.47;5083305;27;45532;-57
2023/08/28 10:54:44;;;;;;;;;3.00;3.00;;;;;25.25;47.08;101074.63;5089971;27;45584;-57
2023/08/28 10:57:23;;;;;;;;;3.75;3.00;;;;;25.20;47.23;101071.53;5085082;27;45460;-58
2023/08/28 10:59:49;;;;;;;;;4.50;3.00;;;;;25.13;47.80;101073.22;5093938;27;45756;-57
2023/08/28 11:02:14;;;;;;;;;3.00;3.00;;;;;25.14;46.93;101068.63;5081489;27;45620;-58
2023/08/28 11:04:40;;;;;;;;;3.00;3.00;;;;;25.26;46.90;101076.28;5086454;27;47137;-57
2023/08/28 11:07:27;;;;;;;;;2.00;2.00;;;;;25.54;46.93;101078.78;5088829;27;45680;-58
2023/08/28 11:10:19;;;;;;;;;5.25;2.75;;;;;25.91;46.47;101077.41;5085530;27;45500;-57
2023/08/28 11:12:56;;;;;;;;;4.25;3.00;;;;;26.38;46.12;101075.84;5072248;27;46235;-58
2023/08/28 11:15:28;;;;;;;;;4.00;2.00;;;;;26.55;45.68;101070.34;5069496;27;46697;-56
2023/08/28 11:18:18;;;;;;;;;3.00;2.00;;;;;26.52;44.97;101059.81;5084379;27;45355;-56
2023/08/28 11:20:50;;;;;;;;;3.50;2.75;;;;;26.46;45.00;101066.78;5097048;27;45774;-56
2023/08/28 11:23:21;;;;;;;;;5.00;2.00;;;;;26.49;44.69;101052.81;5090031;27;46094;-56